Tapes, Brazil
Current Conditions -  °F | °C
As of 1:00 PM on Thursday 30 Oct 2014 (Local Time) from SBPA Reporting Station
Broken Clouds Broken Clouds  
Wind Chill: 75°   Ceiling: 10000
Heat Index: 75°   Visibility: 6mi
Dew Point: 68°   Wind: 14mph
Humidity: 78%   Direction: 260°W
Pressure: 29.8"   Gusts: NA
Location:  30.67°S, 51.4°W
Report Text: SBPA 301500Z 26012KT 9999 FEW017 BKN100 24/20 Q1009
Loading
Personal Weather Stations






























Interactive Weather Map
Tropical Storm Tracking
New forecast layout! Learn more

10-Day Weather Forecast

Advertisements
Track Severe Weather on mobile